sim
Sign-in with your pilot id or email,
or register
Callsign
Passwort

Schedule Details

Flight Number: OEO8480
Departure: Bremen Airport (EDDW) at 07:40
Arrival: Dublin Airport (EIDW) at 09:45

Weather Information
Getting current METAR information for EDDW 101920Z 29008KT 9999 FEW030 14/10 Q1016 NOSIG
Getting current METAR information for EIDW 101930Z 30009KT 9999 FEW022 BKN070 13/09 Q1024 NOSIG

Schedule Frequency

Route Map